createdAt,value
2023-09-08T00:00:46.403Z,101410.16
2023-09-08T00:03:14.167Z,101405.75
2023-09-08T00:05:41.881Z,101404.94
2023-09-08T00:12:21.099Z,101403.47
2023-09-08T00:14:50.111Z,101400.81
2023-09-08T00:17:17.762Z,101398.25
2023-09-08T00:19:45.930Z,101400.13
2023-09-08T00:22:13.576Z,101401.09
2023-09-08T00:24:41.278Z,101396.69
2023-09-08T00:27:10.479Z,101392.31
2023-09-08T00:29:38.199Z,101390.66
2023-09-08T00:32:08.056Z,101392.44
2023-09-08T00:34:35.763Z,101386.28
2023-09-08T00:37:08.148Z,101384.59
2023-09-08T00:39:37.016Z,101382.91
2023-09-08T00:42:04.982Z,101386.56
2023-09-08T00:44:32.686Z,101383.03
2023-09-08T00:47:00.604Z,101384.00
2023-09-08T00:49:29.925Z,101392.09
2023-09-08T00:51:57.802Z,101384.13
2023-09-08T00:54:25.593Z,101394.03
2023-09-08T00:56:57.954Z,101393.22
2023-09-08T00:59:26.737Z,101390.59
2023-09-08T01:01:54.917Z,101389.78
2023-09-08T01:04:23.268Z,101389.78
2023-09-08T01:06:54.136Z,101381.84
2023-09-08T01:09:22.446Z,101383.69
2023-09-08T01:11:50.220Z,101382.84
2023-09-08T01:14:20.150Z,101391.84
2023-09-08T01:16:48.014Z,101390.09
2023-09-08T01:19:18.645Z,101390.19
2023-09-08T01:22:19.502Z,101384.88
2023-09-08T01:25:06.572Z,101387.63
2023-09-08T01:27:37.212Z,101386.78
2023-09-08T01:30:07.802Z,101388.63
2023-09-08T01:32:36.659Z,101396.72
2023-09-08T01:35:05.236Z,101393.22
2023-09-08T01:37:33.673Z,101399.53
2023-09-08T01:40:02.725Z,101399.63
2023-09-08T01:42:30.495Z,101397.03
2023-09-08T01:44:58.143Z,101397.97
2023-09-08T01:47:26.665Z,101398.06
2023-09-08T01:49:54.343Z,101395.44
2023-09-08T01:52:22.329Z,101391.00
2023-09-08T01:54:50.004Z,101396.47
2023-09-08T01:57:19.137Z,101389.31
2023-09-08T01:59:47.190Z,101386.72
2023-09-08T02:02:15.639Z,101384.09
2023-09-08T02:04:43.445Z,101380.56
2023-09-08T02:07:11.160Z,101377.06
2023-09-08T02:09:39.799Z,101382.47
2023-09-08T02:12:08.307Z,101377.13
2023-09-08T02:14:38.859Z,101378.97
2023-09-08T02:17:07.361Z,101378.13
2023-09-08T02:19:35.068Z,101373.75
2023-09-08T02:22:02.744Z,101371.09
2023-09-08T02:24:31.382Z,101366.72
2023-09-08T02:26:59.570Z,101368.56
2023-09-08T02:29:27.309Z,101377.50
2023-09-08T02:31:57.507Z,101369.50
2023-09-08T02:34:25.317Z,101371.31
2023-09-08T02:36:53.030Z,101369.56
2023-09-08T02:39:27.950Z,101368.69
2023-09-08T02:41:56.342Z,101364.28
2023-09-08T02:44:24.074Z,101363.41
2023-09-08T02:46:51.786Z,101361.66
2023-09-08T02:49:20.845Z,101361.66
2023-09-08T02:51:48.530Z,101365.28
2023-09-08T02:54:16.194Z,101362.63
2023-09-08T02:56:43.841Z,101355.53
2023-09-08T02:59:12.010Z,101352.88
2023-09-08T03:01:39.774Z,101354.72
2023-09-08T03:04:07.624Z,101345.84
2023-09-08T03:06:37.238Z,101354.75
2023-09-08T03:09:05.018Z,101355.63
2023-09-08T03:11:32.710Z,101353.03
2023-09-08T03:14:00.523Z,101351.25
2023-09-08T03:16:28.275Z,101351.28
2023-09-08T03:18:56.014Z,101346.88
2023-09-08T03:21:24.014Z,101345.97
2023-09-08T03:23:53.107Z,101339.78
2023-09-08T03:26:20.844Z,101335.34
2023-09-08T03:28:48.474Z,101335.41
2023-09-08T03:31:16.230Z,101338.97
2023-09-08T03:33:44.268Z,101336.31
2023-09-08T03:36:13.004Z,101336.38
2023-09-08T03:38:42.007Z,101332.81
2023-09-08T03:41:11.965Z,101339.09
2023-09-08T03:43:39.744Z,101335.56
2023-09-08T03:46:07.682Z,101337.38
2023-09-08T03:48:35.467Z,101338.28
2023-09-08T03:51:03.337Z,101344.53
2023-09-08T03:53:31.431Z,101347.22
2023-09-08T03:55:59.972Z,101343.63
2023-09-08T03:58:29.335Z,101347.22
2023-09-08T04:00:57.973Z,101356.13
2023-09-08T04:03:26.013Z,101355.25
2023-09-08T04:05:53.847Z,101357.06
2023-09-08T04:08:21.518Z,101357.06
2023-09-08T04:10:49.162Z,101362.41
2023-09-08T04:13:16.811Z,101351.75
2023-09-08T04:15:45.895Z,101344.66
2023-09-08T04:18:14.015Z,101347.34
2023-09-08T04:20:41.801Z,101359.81
2023-09-08T04:23:09.573Z,101349.16
2023-09-08T04:25:37.580Z,101350.97
2023-09-08T04:28:06.658Z,101356.31
2023-09-08T04:30:34.575Z,101353.63
2023-09-08T04:33:03.793Z,101350.97
2023-09-08T04:35:31.592Z,101356.31
2023-09-08T04:38:00.105Z,101361.69
2023-09-08T04:40:29.911Z,101358.13
2023-09-08T04:42:57.631Z,101355.47
2023-09-08T04:45:25.421Z,101349.28
2023-09-08T04:47:53.363Z,101347.47
2023-09-08T04:50:23.559Z,101355.53
2023-09-08T04:52:52.075Z,101351.06
2023-09-08T04:55:20.749Z,101344.00
2023-09-08T04:57:49.087Z,101344.00
2023-09-08T05:00:17.591Z,101351.09
2023-09-08T05:02:46.088Z,101346.66
2023-09-08T05:05:14.202Z,101347.53
2023-09-08T05:07:44.202Z,101353.75
2023-09-08T05:10:12.150Z,101350.22
2023-09-08T05:12:40.612Z,101344.00
2023-09-08T05:15:15.794Z,101350.22
2023-09-08T05:17:46.619Z,101351.13
2023-09-08T05:20:15.001Z,101352.88
2023-09-08T05:22:44.393Z,101363.56
2023-09-08T05:25:12.493Z,101354.66
2023-09-08T05:27:40.563Z,101351.06
2023-09-08T05:30:09.765Z,101352.84
2023-09-08T05:32:38.719Z,101354.59
2023-09-08T05:35:07.469Z,101360.81
2023-09-08T05:37:35.387Z,101359.00
2023-09-08T05:40:06.206Z,101356.34
2023-09-08T05:42:33.898Z,101367.00
2023-09-08T05:45:01.996Z,101361.63
2023-09-08T05:47:29.748Z,101365.16
2023-09-08T05:49:58.197Z,101358.88
2023-09-08T05:52:27.646Z,101356.19
2023-09-08T05:54:55.407Z,101357.91
2023-09-08T05:57:24.464Z,101363.16
2023-09-08T05:59:52.182Z,101356.88
2023-09-08T06:02:20.058Z,101360.38
2023-09-08T06:04:47.767Z,101355.88
2023-09-08T06:07:15.502Z,101362.94
2023-09-08T06:09:43.396Z,101368.28
2023-09-08T06:12:11.241Z,101356.59
2023-09-08T06:14:42.783Z,101359.22
2023-09-08T06:17:11.945Z,101356.47
2023-09-08T06:19:39.743Z,101359.09
2023-09-08T06:22:08.104Z,101359.00
2023-09-08T06:24:35.928Z,101359.81
2023-09-08T06:27:03.902Z,101353.53
2023-09-08T06:29:31.621Z,101365.94
2023-09-08T06:32:00.776Z,101356.06
2023-09-08T06:34:28.741Z,101357.75
2023-09-08T06:36:56.603Z,101357.69
2023-09-08T06:39:24.371Z,101355.81
2023-09-08T06:41:52.114Z,101355.72
2023-09-08T06:44:21.611Z,101357.41
2023-09-08T06:46:49.477Z,101361.81
2023-09-08T06:49:19.286Z,101357.28
2023-09-08T06:51:48.681Z,101361.63
2023-09-08T06:54:16.631Z,101362.47
2023-09-08T06:56:45.852Z,101365.03
2023-09-08T06:59:13.594Z,101363.16
2023-09-08T07:01:41.470Z,101358.59
2023-09-08T07:04:11.314Z,101357.59
2023-09-08T07:06:42.925Z,101361.03
2023-09-08T07:09:11.149Z,101352.91
2023-09-08T07:11:38.990Z,101355.44
2023-09-08T07:14:06.725Z,101352.69
2023-09-08T07:16:34.517Z,101357.00
2023-09-08T07:19:03.225Z,101354.22
2023-09-08T07:21:31.531Z,101352.28
2023-09-08T07:24:01.567Z,101359.34
2023-09-08T07:26:30.162Z,101356.50
2023-09-08T07:28:57.916Z,101360.81
2023-09-08T07:31:25.861Z,101358.03
2023-09-08T07:33:54.009Z,101363.19
2023-09-08T07:36:21.738Z,101359.41
2023-09-08T07:38:50.117Z,101361.00
2023-09-08T07:41:19.178Z,101364.38
2023-09-08T07:43:47.165Z,101365.94
2023-09-08T07:46:18.821Z,101366.66
2023-09-08T07:48:46.526Z,101371.78
2023-09-08T07:51:14.175Z,101366.16
2023-09-08T07:53:41.889Z,101368.56
2023-09-08T07:56:09.595Z,101363.00
2023-09-08T07:58:39.169Z,101362.78
2023-09-08T08:01:06.991Z,101369.59
2023-09-08T08:03:35.997Z,101370.28
2023-09-08T08:06:04.250Z,101365.44
2023-09-08T08:08:32.460Z,101367.78
2023-09-08T08:11:00.780Z,101363.00
2023-09-08T08:13:28.437Z,101367.16
2023-09-08T08:15:57.430Z,101362.34
2023-09-08T08:18:25.172Z,101370.06
2023-09-08T08:20:52.984Z,101357.09
2023-09-08T08:23:21.028Z,101364.75
2023-09-08T08:25:48.921Z,101357.06
2023-09-08T08:28:16.783Z,101357.47
2023-09-08T08:30:46.237Z,101364.22
2023-09-08T08:33:16.514Z,101355.59
2023-09-08T08:35:50.731Z,101357.69
2023-09-08T08:38:18.448Z,101354.44
2023-09-08T08:40:46.272Z,101345.78
2023-09-08T08:43:14.579Z,101353.19
2023-09-08T08:45:44.584Z,101351.78
2023-09-08T08:48:13.815Z,101354.78
2023-09-08T08:50:45.385Z,101358.66
2023-09-08T08:53:14.575Z,101339.06
2023-09-08T08:55:43.301Z,101340.13
2023-09-08T08:58:11.146Z,101342.97
2023-09-08T09:00:40.183Z,101337.72
2023-09-08T09:03:15.721Z,101340.69
2023-09-08T09:05:48.833Z,101341.75
2023-09-08T09:08:18.202Z,101347.44
2023-09-08T09:10:45.876Z,101337.75
2023-09-08T09:13:14.051Z,101333.56
2023-09-08T09:15:41.890Z,101332.94
2023-09-08T09:18:10.405Z,101333.00
2023-09-08T09:20:38.509Z,101335.94
2023-09-08T09:23:07.556Z,101326.94
2023-09-08T09:25:37.387Z,101329.88
2023-09-08T09:28:07.606Z,101334.69
2023-09-08T09:30:52.325Z,101327.75
2023-09-08T09:33:20.576Z,101323.44
2023-09-08T09:35:50.746Z,101327.28
2023-09-08T09:38:21.644Z,101322.91
2023-09-08T09:40:50.384Z,101324.91
2023-09-08T09:43:19.074Z,101317.94
2023-09-08T09:45:47.151Z,101318.19
2023-09-08T09:48:15.193Z,101321.38
2023-09-08T09:50:44.344Z,101321.66
2023-09-08T09:53:14.814Z,101317.50
2023-09-08T09:55:45.456Z,101323.16
2023-09-08T09:58:15.385Z,101308.81
2023-09-08T10:00:46.535Z,101307.28
2023-09-08T10:03:15.919Z,101300.31
2023-09-08T10:05:43.705Z,101302.41
2023-09-08T10:08:12.662Z,101302.31
2023-09-08T10:10:42.876Z,101298.97
2023-09-08T10:13:13.638Z,101297.41
2023-09-08T10:15:43.326Z,101297.63
2023-09-08T10:18:16.617Z,101302.25
2023-09-08T10:20:46.428Z,101300.56
2023-09-08T10:23:17.940Z,101295.75
2023-09-08T10:25:54.181Z,101290.84
2023-09-08T10:28:24.223Z,101291.50
2023-09-08T10:30:52.910Z,101297.13
2023-09-08T10:33:22.162Z,101298.13
2023-09-08T10:35:50.040Z,101295.41
2023-09-08T10:38:26.042Z,101300.59
2023-09-08T10:40:54.679Z,101288.78
2023-09-08T10:43:26.130Z,101300.53
2023-09-08T10:45:53.915Z,101293.16
2023-09-08T10:48:21.628Z,101293.94
2023-09-08T10:50:49.449Z,101287.53
2023-09-08T10:53:18.930Z,101286.09
2023-09-08T10:56:15.768Z,101288.81
2023-09-08T10:58:44.606Z,101289.09
2023-09-08T11:01:15.682Z,101280.03
2023-09-08T11:03:50.724Z,101293.28
2023-09-08T11:06:19.981Z,101277.75
2023-09-08T11:08:49.835Z,101278.84
2023-09-08T11:11:19.346Z,101290.13
2023-09-08T11:13:48.630Z,101286.28
2023-09-08T11:16:17.097Z,101287.28
2023-09-08T11:18:45.359Z,101285.94
2023-09-08T11:21:13.195Z,101289.13
2023-09-08T11:23:41.051Z,101288.31
2023-09-08T11:26:10.059Z,101272.84
2023-09-08T11:28:38.742Z,101273.28
2023-09-08T11:31:08.370Z,101276.44
2023-09-08T11:33:40.469Z,101276.06
2023-09-08T11:36:15.430Z,101263.13
2023-09-08T11:38:45.045Z,101266.22
2023-09-08T11:41:12.835Z,101257.53
2023-09-08T11:43:40.638Z,101260.94
2023-09-08T11:46:11.965Z,101261.94
2023-09-08T11:48:40.724Z,101257.59
2023-09-08T11:51:09.102Z,101255.78
2023-09-08T11:53:39.083Z,101250.69
2023-09-08T11:56:07.440Z,101255.00
2023-09-08T11:58:35.958Z,101259.13
2023-09-08T12:01:05.056Z,101259.13
2023-09-08T12:03:34.233Z,101255.75
2023-09-08T12:06:03.552Z,101251.59
2023-09-08T12:08:31.549Z,101251.97
2023-09-08T12:10:59.546Z,101250.41
2023-09-08T12:13:27.889Z,101247.25
2023-09-08T12:15:55.571Z,101253.28
2023-09-08T12:18:41.446Z,101252.69
2023-09-08T12:21:11.240Z,101252.09
2023-09-08T12:23:50.431Z,101251.06
2023-09-08T12:26:18.974Z,101240.66
2023-09-08T12:28:49.685Z,101234.47
2023-09-08T12:31:19.143Z,101234.97
2023-09-08T12:33:48.506Z,101227.59
2023-09-08T12:36:17.719Z,101235.13
2023-09-08T12:38:50.420Z,101229.06
2023-09-08T12:41:18.327Z,101222.31
2023-09-08T12:43:46.893Z,101223.63
2023-09-08T12:46:14.796Z,101218.84
2023-09-08T12:48:42.486Z,101221.75
2023-09-08T12:51:11.487Z,101202.63
2023-09-08T12:53:39.162Z,101214.81
2023-09-08T12:56:06.889Z,101209.75
2023-09-08T12:58:35.103Z,101213.34
2023-09-08T13:01:06.364Z,101206.81
2023-09-08T13:03:34.302Z,101206.06
2023-09-08T13:06:02.022Z,101195.03
2023-09-08T13:08:31.082Z,101188.91
2023-09-08T13:10:58.759Z,101189.56
2023-09-08T13:13:26.458Z,101187.91
2023-09-08T13:15:54.508Z,101177.69
2023-09-08T13:18:22.215Z,101175.50
2023-09-08T13:20:49.892Z,101178.09
2023-09-08T13:23:17.791Z,101180.13
2023-09-08T13:25:47.253Z,101167.16
2023-09-08T13:28:15.915Z,101170.72
2023-09-08T13:30:43.763Z,101179.00
2023-09-08T13:33:11.483Z,101178.44
2023-09-08T13:35:40.220Z,101171.41
2023-09-08T13:38:07.952Z,101163.63
2023-09-08T13:40:35.747Z,101169.56
2023-09-08T13:43:04.918Z,101157.56
2023-09-08T13:45:32.726Z,101156.88
2023-09-08T13:48:00.885Z,101160.59
2023-09-08T13:50:30.453Z,101157.97
2023-09-08T13:52:59.450Z,101154.13
2023-09-08T13:58:01.167Z,101157.97
2023-09-08T14:00:32.263Z,101151.44
2023-09-08T14:03:05.521Z,101150.59
2023-09-08T14:05:36.596Z,101150.19
2023-09-08T14:08:12.136Z,101148.75
2023-09-08T14:10:52.962Z,101142.06
2023-09-08T14:13:25.924Z,101146.19
2023-09-08T14:15:55.585Z,101140.41
2023-09-08T14:18:23.277Z,101145.38
2023-09-08T14:20:50.958Z,101136.06
2023-09-08T14:23:18.649Z,101143.88
2023-09-08T14:25:46.318Z,101134.13
2023-09-08T14:28:13.990Z,101138.78
2023-09-08T14:30:41.873Z,101143.84
2023-09-08T14:33:10.985Z,101136.84
2023-09-08T14:35:44.467Z,101133.94
2023-09-08T14:38:12.905Z,101131.19
2023-09-08T14:40:40.616Z,101137.81
2023-09-08T14:43:08.278Z,101131.00
2023-09-08T14:45:36.185Z,101133.84
2023-09-08T14:48:03.934Z,101122.69
2023-09-08T14:50:33.665Z,101128.50
2023-09-08T14:53:01.341Z,101129.13
2023-09-08T14:55:28.998Z,101118.69
2023-09-08T14:57:56.907Z,101114.56
2023-09-08T15:00:24.662Z,101120.09
2023-09-08T15:02:52.807Z,101111.53
2023-09-08T15:05:20.483Z,101117.69
2023-09-08T15:07:49.474Z,101115.19
2023-09-08T15:10:17.404Z,101105.09
2023-09-08T15:12:45.229Z,101106.69
2023-09-08T15:15:12.967Z,101109.84
2023-09-08T15:17:40.639Z,101102.91
2023-09-08T15:20:10.372Z,101108.53
2023-09-08T15:22:38.149Z,101104.31
2023-09-08T15:25:07.975Z,101101.19
2023-09-08T15:27:35.726Z,101098.28
2023-09-08T15:30:03.712Z,101096.34
2023-09-08T15:32:31.780Z,101100.56
2023-09-08T15:34:59.496Z,101092.41
2023-09-08T15:37:27.183Z,101090.91
2023-09-08T15:39:55.199Z,101092.97
2023-09-08T15:42:24.354Z,101095.03
2023-09-08T15:44:52.066Z,101081.78
2023-09-08T15:47:21.415Z,101079.50
2023-09-08T15:49:49.164Z,101083.91
2023-09-08T15:52:17.305Z,101077.00
2023-09-08T15:54:45.374Z,101071.94
2023-09-08T15:57:13.234Z,101067.88
2023-09-08T15:59:42.309Z,101075.72
2023-09-08T16:02:10.137Z,101075.75
2023-09-08T16:04:38.128Z,101082.31
2023-09-08T16:07:06.392Z,101074.25
2023-09-08T16:09:34.046Z,101073.34
2023-09-08T16:12:01.711Z,101073.44
2023-09-08T16:14:29.970Z,101082.38
2023-09-08T16:16:59.727Z,101071.41
2023-09-08T16:19:27.754Z,101063.19
2023-09-08T16:21:55.403Z,101068.47
2023-09-08T16:24:23.060Z,101066.59
2023-09-08T16:26:50.859Z,101059.19
2023-09-08T16:29:18.601Z,101064.63
2023-09-08T16:31:46.337Z,101067.19
2023-09-08T16:34:15.762Z,101063.41
2023-09-08T16:36:43.407Z,101061.47
2023-09-08T16:39:11.046Z,101064.88
2023-09-08T16:41:38.740Z,101075.75
2023-09-08T16:44:06.783Z,101067.47
2023-09-08T16:46:34.498Z,101064.69
2023-09-08T16:49:02.185Z,101063.59
2023-09-08T16:51:31.325Z,101061.59
2023-09-08T16:54:00.784Z,101060.63
2023-09-08T16:56:28.629Z,101063.03
2023-09-08T16:58:56.730Z,101066.56
2023-09-08T17:01:24.595Z,101069.06
2023-09-08T17:03:52.424Z,101065.13
2023-09-08T17:06:20.250Z,101068.47
2023-09-08T17:08:49.266Z,101065.50
2023-09-08T17:11:19.400Z,101069.84
2023-09-08T17:13:47.088Z,101073.44
2023-09-08T17:16:14.816Z,101071.44
2023-09-08T17:18:42.632Z,101067.72
2023-09-08T17:21:10.413Z,101066.53
2023-09-08T17:23:38.379Z,101067.38
2023-09-08T17:26:08.815Z,101071.78
2023-09-08T17:28:36.470Z,101071.81
2023-09-08T17:31:05.800Z,101072.50
2023-09-08T17:33:34.105Z,101070.56
2023-09-08T17:36:01.908Z,101074.94
2023-09-08T17:38:29.958Z,101079.41
2023-09-08T17:40:59.620Z,101080.19
2023-09-08T17:43:30.361Z,101083.66
2023-09-08T17:45:58.606Z,101076.34
2023-09-08T17:48:27.851Z,101079.03
2023-09-08T17:50:55.747Z,101079.69
2023-09-08T17:53:23.456Z,101090.41
2023-09-08T17:55:51.170Z,101088.44
2023-09-08T17:58:19.753Z,101081.97
2023-09-08T18:00:49.463Z,101079.06
2023-09-08T18:03:19.251Z,101082.47
2023-09-08T18:05:48.639Z,101084.16
2023-09-08T18:08:16.996Z,101089.34
2023-09-08T18:10:44.719Z,101091.75
2023-09-08T18:13:12.593Z,101091.44
2023-09-08T18:15:40.745Z,101086.63
2023-09-08T18:18:09.826Z,101096.41
2023-09-08T18:20:37.659Z,101091.72
2023-09-08T18:23:05.607Z,101084.16
2023-09-08T18:25:33.296Z,101084.75
2023-09-08T18:28:01.035Z,101088.91
2023-09-08T18:30:28.698Z,101079.53
2023-09-08T18:32:56.346Z,101079.22
2023-09-08T18:35:26.158Z,101088.78
2023-09-08T18:37:54.684Z,101083.91
2023-09-08T18:40:22.351Z,101079.91
2023-09-08T18:42:50.086Z,101084.91
2023-09-08T18:45:18.324Z,101082.69
2023-09-08T18:47:46.076Z,101077.69
2023-09-08T18:50:14.019Z,101081.69
2023-09-08T18:52:43.509Z,101084.88
2023-09-08T18:55:11.181Z,101086.13
2023-09-08T18:57:38.815Z,101081.94
2023-09-08T19:00:07.997Z,101089.47
2023-09-08T19:02:35.965Z,101087.22
2023-09-08T19:05:04.398Z,101099.34
2023-09-08T19:07:32.098Z,101092.53
2023-09-08T19:10:02.089Z,101094.72
2023-09-08T19:12:29.750Z,101099.56
2023-09-08T19:14:57.610Z,101093.59
2023-09-08T19:17:25.302Z,101083.28
2023-09-08T19:19:53.267Z,101082.75
2023-09-08T19:22:21.014Z,101077.75
2023-09-08T19:24:49.519Z,101076.22
2023-09-08T19:27:18.542Z,101075.72
2023-09-08T19:29:49.670Z,101075.97
2023-09-08T19:32:17.443Z,101073.69
2023-09-08T19:34:45.196Z,101073.06
2023-09-08T19:37:12.971Z,101074.25
2023-09-08T19:39:41.094Z,101072.66
2023-09-08T19:42:08.752Z,101073.00
2023-09-08T19:44:37.807Z,101075.13
2023-09-08T19:47:05.908Z,101081.69
2023-09-08T19:49:33.588Z,101074.78
2023-09-08T19:52:01.281Z,101067.78
2023-09-08T19:54:29.114Z,101071.63
2023-09-08T19:56:56.747Z,101071.00
2023-09-08T19:59:24.402Z,101071.22
2023-09-08T20:01:53.435Z,101065.28
2023-09-08T20:04:21.218Z,101069.88
2023-09-08T20:06:49.285Z,101070.16
2023-09-08T20:09:17.277Z,101070.34
2023-09-08T20:11:45.365Z,101067.00
2023-09-08T20:14:14.038Z,101074.44
2023-09-08T20:16:41.729Z,101072.81
2023-09-08T20:19:11.489Z,101061.56
2023-09-08T20:21:39.169Z,101080.56
2023-09-08T20:24:08.017Z,101070.91
2023-09-08T20:26:35.750Z,101072.97
2023-09-08T20:29:03.644Z,101069.56
2023-09-08T20:31:32.095Z,101076.00
2023-09-08T20:33:59.815Z,101073.63
2023-09-08T20:36:29.292Z,101077.38
2023-09-08T20:38:56.952Z,101085.56
2023-09-08T20:41:25.070Z,101076.78
2023-09-08T20:43:52.771Z,101072.44
2023-09-08T20:46:20.449Z,101076.25
2023-09-08T20:48:48.179Z,101076.38
2023-09-08T20:51:21.527Z,101077.53
2023-09-08T20:53:50.816Z,101083.09
2023-09-08T20:56:18.545Z,101078.72
2023-09-08T20:58:46.173Z,101082.44
2023-09-08T21:01:13.884Z,101072.75
2023-09-08T21:03:41.697Z,101079.09
2023-09-08T21:06:11.402Z,101081.06
2023-09-08T21:08:39.440Z,101074.09
2023-09-08T21:11:08.654Z,101075.16
2023-09-08T21:13:36.603Z,101077.97
2023-09-08T21:16:04.554Z,101073.69
2023-09-08T21:18:32.308Z,101078.34
2023-09-08T21:21:00.481Z,101076.63
2023-09-08T21:23:29.061Z,101071.38
2023-09-08T21:25:56.777Z,101088.59
2023-09-08T21:28:25.832Z,101076.19
2023-09-08T21:30:53.484Z,101075.44
2023-09-08T21:33:21.681Z,101083.66
2023-09-08T21:35:49.487Z,101077.47
2023-09-08T21:38:17.920Z,101077.63
2023-09-08T21:40:45.589Z,101078.69
2023-09-08T21:43:13.237Z,101078.75
2023-09-08T21:45:42.279Z,101084.28
2023-09-08T21:48:10.232Z,101082.63
2023-09-08T21:50:38.098Z,101085.44
2023-09-08T21:53:05.781Z,101082.91
2023-09-08T21:55:33.485Z,101085.69
2023-09-08T21:58:01.178Z,101083.13
2023-09-08T22:00:32.615Z,101085.03
2023-09-08T22:03:01.779Z,101089.63
2023-09-08T22:05:29.698Z,101081.66
2023-09-08T22:07:57.599Z,101080.88
2023-09-08T22:10:25.352Z,101084.56
2023-09-08T22:12:53.350Z,101082.03
2023-09-08T22:15:21.363Z,101085.66
2023-09-08T22:17:50.813Z,101075.91
2023-09-08T22:20:20.163Z,101072.47
2023-09-08T22:22:47.814Z,101080.66
2023-09-08T22:25:15.793Z,101074.53
2023-09-08T22:27:43.493Z,101078.22
2023-09-08T22:30:12.231Z,101071.22
2023-09-08T22:32:40.148Z,101080.25
2023-09-08T22:35:08.814Z,101075.00
2023-09-08T22:37:37.841Z,101083.22
2023-09-08T22:40:09.852Z,101069.03
2023-09-08T22:42:37.860Z,101071.88
2023-09-08T22:45:06.382Z,101070.16
2023-09-08T22:47:34.328Z,101064.03
2023-09-08T22:50:11.661Z,101058.78
2023-09-08T22:52:42.109Z,101061.53
2023-09-08T22:55:24.088Z,101058.09
2023-09-08T22:57:53.471Z,101063.56
2023-09-08T23:00:21.226Z,101052.97
2023-09-08T23:02:49.003Z,101049.50
2023-09-08T23:05:16.962Z,101058.50
2023-09-08T23:07:46.359Z,101056.00
2023-09-08T23:10:14.274Z,101048.88
2023-09-08T23:12:42.117Z,101057.94
2023-09-08T23:15:11.242Z,101058.91
2023-09-08T23:17:39.250Z,101061.69
2023-09-08T23:20:09.161Z,101050.25
2023-09-08T23:22:37.971Z,101054.75
2023-09-08T23:25:07.765Z,101056.63
2023-09-08T23:27:36.174Z,101049.59
2023-09-08T23:30:04.701Z,101047.00
2023-09-08T23:32:32.500Z,101046.13
2023-09-08T23:35:01.568Z,101038.16
2023-09-08T23:37:29.313Z,101044.53
2023-09-08T23:39:57.000Z,101044.53
2023-09-08T23:42:26.017Z,101049.06
2023-09-08T23:44:53.785Z,101044.66
2023-09-08T23:47:21.560Z,101039.34
2023-09-08T23:49:49.602Z,101036.78
2023-09-08T23:52:17.246Z,101040.38
2023-09-08T23:54:44.877Z,101031.53
2023-09-08T23:57:12.925Z,101036.06
2023-09-08T23:59:41.983Z,101028.94
